Roelyn, Iowa
Current Conditions -  °F | °C
As of 6:15 PM on Saturday 22 Nov 2014 (Local Time) from KFOD Reporting Station
Overcast Overcast  
Wind Chill: 43°   Ceiling: 1500
Heat Index: 48°   Visibility: 10mi
Dew Point: 43°   Wind: 13mph
Humidity: 82%   Direction: 190°S
Pressure: 29.64"   Gusts: 17mph
Location:  42.4284°N, 94.3389°W
Report Text: KFOD 230015Z AUTO 19011G15KT 10SM OVC015 09/06 A2964 RMK AO1
Loading
Personal Weather Stations






























Interactive Weather Map New forecast layout! Learn more

10-Day Weather Forecast

Advertisements
Track Severe Weather on mobile